sensor_id;sensor_type;location;lat;lon;timestamp;temperature;humidity
52034;DHT22;38045;52.988;6.536;2023-04-02T00:09:02;4.60;99.90
52034;DHT22;38045;52.988;6.536;2023-04-02T00:11:44;4.50;99.90
52034;DHT22;38045;52.988;6.536;2023-04-02T00:14:22;4.50;99.90
52034;DHT22;38045;52.988;6.536;2023-04-02T00:16:49;4.50;99.90
52034;DHT22;38045;52.988;6.536;2023-04-02T00:22:29;4.50;99.90
52034;DHT22;38045;52.988;6.536;2023-04-02T00:24:55;4.40;99.90
52034;DHT22;38045;52.988;6.536;2023-04-02T00:27:21;4.50;99.90
52034;DHT22;38045;52.988;6.536;2023-04-02T00:29:49;4.40;99.90
52034;DHT22;38045;52.988;6.536;2023-04-02T00:32:27;4.40;99.90
52034;DHT22;38045;52.988;6.536;2023-04-02T00:34:54;4.40;99.90
52034;DHT22;38045;52.988;6.536;2023-04-02T00:37:22;4.50;99.90
52034;DHT22;38045;52.988;6.536;2023-04-02T00:40:22;4.40;99.90
52034;DHT22;38045;52.988;6.536;2023-04-02T00:42:49;4.40;99.90
52034;DHT22;38045;52.988;6.536;2023-04-02T00:45:27;4.40;99.90
52034;DHT22;38045;52.988;6.536;2023-04-02T00:47:54;4.40;99.90
52034;DHT22;38045;52.988;6.536;2023-04-02T00:50:31;4.30;99.90
52034;DHT22;38045;52.988;6.536;2023-04-02T00:52:59;4.30;99.90
52034;DHT22;38045;52.988;6.536;2023-04-02T00:55:33;4.30;99.90
52034;DHT22;38045;52.988;6.536;2023-04-02T00:58:01;4.30;99.90
52034;DHT22;38045;52.988;6.536;2023-04-02T01:00:33;4.30;99.90
52034;DHT22;38045;52.988;6.536;2023-04-02T01:05:49;4.20;99.90
52034;DHT22;38045;52.988;6.536;2023-04-02T01:16:39;4.00;99.90
52034;DHT22;38045;52.988;6.536;2023-04-02T01:19:23;3.90;99.90
52034;DHT22;38045;52.988;6.536;2023-04-02T01:22:00;3.80;99.90
52034;DHT22;38045;52.988;6.536;2023-04-02T01:24:31;3.70;99.90
52034;DHT22;38045;52.988;6.536;2023-04-02T01:27:00;3.60;99.90
52034;DHT22;38045;52.988;6.536;2023-04-02T01:31:53;3.50;99.90
52034;DHT22;38045;52.988;6.536;2023-04-02T01:34:22;3.40;99.90
52034;DHT22;38045;52.988;6.536;2023-04-02T01:37:04;3.40;99.90
52034;DHT22;38045;52.988;6.536;2023-04-02T01:43:05;3.30;99.90
52034;DHT22;38045;52.988;6.536;2023-04-02T01:45:34;3.30;99.90
52034;DHT22;38045;52.988;6.536;2023-04-02T01:48:04;3.20;99.90
52034;DHT22;38045;52.988;6.536;2023-04-02T01:50:37;3.20;99.90
52034;DHT22;38045;52.988;6.536;2023-04-02T01:53:06;3.10;99.90
52034;DHT22;38045;52.988;6.536;2023-04-02T01:55:51;3.10;99.90
52034;DHT22;38045;52.988;6.536;2023-04-02T01:58:20;3.00;99.90
52034;DHT22;38045;52.988;6.536;2023-04-02T02:03:21;2.90;99.90
52034;DHT22;38045;52.988;6.536;2023-04-02T02:05:50;2.90;99.90
52034;DHT22;38045;52.988;6.536;2023-04-02T02:08:32;2.80;99.90
52034;DHT22;38045;52.988;6.536;2023-04-02T02:10:59;2.80;99.90
52034;DHT22;38045;52.988;6.536;2023-04-02T02:13:25;2.80;99.90
52034;DHT22;38045;52.988;6.536;2023-04-02T02:15:50;2.70;99.90
52034;DHT22;38045;52.988;6.536;2023-04-02T02:18:20;2.70;99.90
52034;DHT22;38045;52.988;6.536;2023-04-02T02:20:50;2.70;99.90
52034;DHT22;38045;52.988;6.536;2023-04-02T02:23:17;2.70;99.90
52034;DHT22;38045;52.988;6.536;2023-04-02T02:25:43;2.60;99.90
52034;DHT22;38045;52.988;6.536;2023-04-02T02:28:36;2.60;99.90
52034;DHT22;38045;52.988;6.536;2023-04-02T02:31:20;2.60;99.90
52034;DHT22;38045;52.988;6.536;2023-04-02T02:33:52;2.60;99.90
52034;DHT22;38045;52.988;6.536;2023-04-02T02:39:21;2.60;99.90
52034;DHT22;38045;52.988;6.536;2023-04-02T02:41:52;2.50;99.90
52034;DHT22;38045;52.988;6.536;2023-04-02T02:44:26;2.50;99.90
52034;DHT22;38045;52.988;6.536;2023-04-02T02:46:57;2.40;99.90
52034;DHT22;38045;52.988;6.536;2023-04-02T02:49:31;2.40;99.90
52034;DHT22;38045;52.988;6.536;2023-04-02T02:52:20;2.30;99.90
52034;DHT22;38045;52.988;6.536;2023-04-02T02:54:52;2.30;99.90
52034;DHT22;38045;52.988;6.536;2023-04-02T02:57:33;2.30;99.90
52034;DHT22;38045;52.988;6.536;2023-04-02T03:00:01;2.20;99.90
52034;DHT22;38045;52.988;6.536;2023-04-02T03:02:29;2.30;99.90
52034;DHT22;38045;52.988;6.536;2023-04-02T03:04:56;2.20;99.90
52034;DHT22;38045;52.988;6.536;2023-04-02T03:07:24;2.20;99.90
52034;DHT22;38045;52.988;6.536;2023-04-02T03:10:14;2.20;99.90
52034;DHT22;38045;52.988;6.536;2023-04-02T03:13:04;2.20;99.90
52034;DHT22;38045;52.988;6.536;2023-04-02T03:15:57;2.10;99.90
52034;DHT22;38045;52.988;6.536;2023-04-02T03:21:33;2.10;99.90
52034;DHT22;38045;52.988;6.536;2023-04-02T03:24:16;2.10;99.90
52034;DHT22;38045;52.988;6.536;2023-04-02T03:29:25;2.10;99.90
52034;DHT22;38045;52.988;6.536;2023-04-02T03:32:25;2.10;99.90
52034;DHT22;38045;52.988;6.536;2023-04-02T03:37:59;2.10;99.90
52034;DHT22;38045;52.988;6.536;2023-04-02T03:40:32;2.10;99.90
52034;DHT22;38045;52.988;6.536;2023-04-02T03:43:13;2.10;99.90
52034;DHT22;38045;52.988;6.536;2023-04-02T03:45:42;2.10;99.90
52034;DHT22;38045;52.988;6.536;2023-04-02T03:51:38;2.00;99.90
52034;DHT22;38045;52.988;6.536;2023-04-02T03:54:12;2.00;99.90
52034;DHT22;38045;52.988;6.536;2023-04-02T03:56:39;2.00;99.90
52034;DHT22;38045;52.988;6.536;2023-04-02T04:04:27;1.90;99.90
52034;DHT22;38045;52.988;6.536;2023-04-02T04:06:55;1.90;99.90
52034;DHT22;38045;52.988;6.536;2023-04-02T04:09:31;1.80;99.90
52034;DHT22;38045;52.988;6.536;2023-04-02T04:14:50;1.70;99.90
52034;DHT22;38045;52.988;6.536;2023-04-02T04:17:25;1.70;99.90
52034;DHT22;38045;52.988;6.536;2023-04-02T04:20:16;1.70;99.90
52034;DHT22;38045;52.988;6.536;2023-04-02T04:22:47;1.70;99.90
52034;DHT22;38045;52.988;6.536;2023-04-02T04:25:20;1.60;99.90
52034;DHT22;38045;52.988;6.536;2023-04-02T04:31:01;1.60;99.90
52034;DHT22;38045;52.988;6.536;2023-04-02T04:33:37;1.70;99.90
52034;DHT22;38045;52.988;6.536;2023-04-02T04:36:05;1.60;99.90
52034;DHT22;38045;52.988;6.536;2023-04-02T04:38:47;1.50;99.90
52034;DHT22;38045;52.988;6.536;2023-04-02T04:41:32;1.50;99.90
52034;DHT22;38045;52.988;6.536;2023-04-02T04:46:46;1.50;99.90
52034;DHT22;38045;52.988;6.536;2023-04-02T04:49:31;1.50;99.90
52034;DHT22;38045;52.988;6.536;2023-04-02T04:52:04;1.50;99.90
52034;DHT22;38045;52.988;6.536;2023-04-02T04:54:31;1.50;99.90
52034;DHT22;38045;52.988;6.536;2023-04-02T04:57:02;1.40;99.90
52034;DHT22;38045;52.988;6.536;2023-04-02T04:59:39;1.40;99.90
52034;DHT22;38045;52.988;6.536;2023-04-02T05:02:11;1.40;99.90
52034;DHT22;38045;52.988;6.536;2023-04-02T05:04:41;1.40;99.90
52034;DHT22;38045;52.988;6.536;2023-04-02T05:07:08;1.40;99.90
52034;DHT22;38045;52.988;6.536;2023-04-02T05:09:40;1.40;99.90
52034;DHT22;38045;52.988;6.536;2023-04-02T05:17:50;1.50;99.90
52034;DHT22;38045;52.988;6.536;2023-04-02T05:20:30;1.50;99.90
52034;DHT22;38045;52.988;6.536;2023-04-02T05:23:09;1.50;99.90
52034;DHT22;38045;52.988;6.536;2023-04-02T05:25:36;1.40;99.90
52034;DHT22;38045;52.988;6.536;2023-04-02T05:28:20;1.40;99.90
52034;DHT22;38045;52.988;6.536;2023-04-02T05:30:57;1.50;99.90
52034;DHT22;38045;52.988;6.536;2023-04-02T05:33:30;1.50;99.90
52034;DHT22;38045;52.988;6.536;2023-04-02T05:36:08;1.50;99.90
52034;DHT22;38045;52.988;6.536;2023-04-02T05:38:38;1.50;99.90
52034;DHT22;38045;52.988;6.536;2023-04-02T05:44:34;1.60;99.90
52034;DHT22;38045;52.988;6.536;2023-04-02T05:49:47;1.60;99.90
52034;DHT22;38045;52.988;6.536;2023-04-02T05:52:22;1.70;99.90
52034;DHT22;38045;52.988;6.536;2023-04-02T05:54:52;1.70;99.90
52034;DHT22;38045;52.988;6.536;2023-04-02T05:57:24;1.70;99.90
52034;DHT22;38045;52.988;6.536;2023-04-02T05:59:57;1.70;99.90
52034;DHT22;38045;52.988;6.536;2023-04-02T06:02:32;1.80;99.90
52034;DHT22;38045;52.988;6.536;2023-04-02T06:05:13;1.80;99.90
52034;DHT22;38045;52.988;6.536;2023-04-02T06:10:41;1.90;99.90
52034;DHT22;38045;52.988;6.536;2023-04-02T06:13:15;2.00;99.90
52034;DHT22;38045;52.988;6.536;2023-04-02T06:15:42;2.10;99.90
52034;DHT22;38045;52.988;6.536;2023-04-02T06:18:16;2.10;99.90
52034;DHT22;38045;52.988;6.536;2023-04-02T06:20:43;2.20;99.90
52034;DHT22;38045;52.988;6.536;2023-04-02T06:23:34;2.20;99.90
52034;DHT22;38045;52.988;6.536;2023-04-02T06:29:32;2.30;99.90
52034;DHT22;38045;52.988;6.536;2023-04-02T06:31:46;2.40;99.90
52034;DHT22;38045;52.988;6.536;2023-04-02T06:34:16;2.40;99.90
52034;DHT22;38045;52.988;6.536;2023-04-02T06:36:42;2.50;99.90
52034;DHT22;38045;52.988;6.536;2023-04-02T06:39:16;2.50;99.90
52034;DHT22;38045;52.988;6.536;2023-04-02T06:41:42;2.50;99.90
52034;DHT22;38045;52.988;6.536;2023-04-02T06:44:16;2.60;99.90
52034;DHT22;38045;52.988;6.536;2023-04-02T06:46:53;2.70;99.90
52034;DHT22;38045;52.988;6.536;2023-04-02T06:49:37;2.70;99.90
52034;DHT22;38045;52.988;6.536;2023-04-02T06:52:12;2.70;99.90
52034;DHT22;38045;52.988;6.536;2023-04-02T06:54:39;2.80;99.90
52034;DHT22;38045;52.988;6.536;2023-04-02T06:57:05;2.90;99.90
52034;DHT22;38045;52.988;6.536;2023-04-02T06:59:32;2.90;99.90
52034;DHT22;38045;52.988;6.536;2023-04-02T07:02:01;2.90;99.90
52034;DHT22;38045;52.988;6.536;2023-04-02T07:04:28;3.00;99.90
52034;DHT22;38045;52.988;6.536;2023-04-02T07:06:54;3.00;99.90
52034;DHT22;38045;52.988;6.536;2023-04-02T07:09:20;3.10;99.90
52034;DHT22;38045;52.988;6.536;2023-04-02T07:11:46;3.20;99.90
52034;DHT22;38045;52.988;6.536;2023-04-02T07:14:12;3.20;99.90
52034;DHT22;38045;52.988;6.536;2023-04-02T07:16:38;3.30;99.90
52034;DHT22;38045;52.988;6.536;2023-04-02T07:19:05;3.30;99.90
52034;DHT22;38045;52.988;6.536;2023-04-02T07:21:30;3.30;99.90
52034;DHT22;38045;52.988;6.536;2023-04-02T07:23:56;3.30;99.90
52034;DHT22;38045;52.988;6.536;2023-04-02T07:26:25;3.30;99.90
52034;DHT22;38045;52.988;6.536;2023-04-02T07:28:53;3.40;99.90
52034;DHT22;38045;52.988;6.536;2023-04-02T07:31:22;3.50;99.90
52034;DHT22;38045;52.988;6.536;2023-04-02T07:33:49;3.50;99.90
52034;DHT22;38045;52.988;6.536;2023-04-02T07:36:17;3.60;99.90
52034;DHT22;38045;52.988;6.536;2023-04-02T07:38:43;3.60;99.90
52034;DHT22;38045;52.988;6.536;2023-04-02T07:41:09;3.70;99.90
52034;DHT22;38045;52.988;6.536;2023-04-02T07:43:36;3.70;99.90
52034;DHT22;38045;52.988;6.536;2023-04-02T07:46:03;3.80;99.90
52034;DHT22;38045;52.988;6.536;2023-04-02T07:48:28;3.90;99.90
52034;DHT22;38045;52.988;6.536;2023-04-02T07:50:54;3.90;99.90
52034;DHT22;38045;52.988;6.536;2023-04-02T07:53:30;3.90;99.90
52034;DHT22;38045;52.988;6.536;2023-04-02T07:55:58;4.00;99.90
52034;DHT22;38045;52.988;6.536;2023-04-02T07:58:24;4.00;99.90
52034;DHT22;38045;52.988;6.536;2023-04-02T08:00:49;4.10;99.90
52034;DHT22;38045;52.988;6.536;2023-04-02T08:03:15;4.10;99.90
52034;DHT22;38045;52.988;6.536;2023-04-02T08:05:41;4.20;99.90
52034;DHT22;38045;52.988;6.536;2023-04-02T08:08:07;4.20;99.90
52034;DHT22;38045;52.988;6.536;2023-04-02T08:10:33;4.30;99.90
52034;DHT22;38045;52.988;6.536;2023-04-02T08:12:58;4.30;99.90
52034;DHT22;38045;52.988;6.536;2023-04-02T08:15:24;4.30;99.90
52034;DHT22;38045;52.988;6.536;2023-04-02T08:17:50;4.20;99.90
52034;DHT22;38045;52.988;6.536;2023-04-02T08:20:18;4.20;99.90
52034;DHT22;38045;52.988;6.536;2023-04-02T08:22:45;4.10;99.90
52034;DHT22;38045;52.988;6.536;2023-04-02T08:25:11;4.10;99.90
52034;DHT22;38045;52.988;6.536;2023-04-02T08:27:37;4.30;99.90
52034;DHT22;38045;52.988;6.536;2023-04-02T08:30:04;4.40;99.90
52034;DHT22;38045;52.988;6.536;2023-04-02T08:32:30;4.60;99.90
52034;DHT22;38045;52.988;6.536;2023-04-02T08:34:56;4.70;99.90
52034;DHT22;38045;52.988;6.536;2023-04-02T08:37:21;4.70;99.90
52034;DHT22;38045;52.988;6.536;2023-04-02T08:39:47;4.80;99.90
52034;DHT22;38045;52.988;6.536;2023-04-02T08:42:33;4.80;99.90
52034;DHT22;38045;52.988;6.536;2023-04-02T08:45:22;4.80;99.90
52034;DHT22;38045;52.988;6.536;2023-04-02T08:47:54;4.80;99.90
52034;DHT22;38045;52.988;6.536;2023-04-02T08:50:40;4.90;99.90
52034;DHT22;38045;52.988;6.536;2023-04-02T08:53:12;5.00;99.90
52034;DHT22;38045;52.988;6.536;2023-04-02T08:56:04;5.10;99.90
52034;DHT22;38045;52.988;6.536;2023-04-02T09:01:08;5.30;99.90
52034;DHT22;38045;52.988;6.536;2023-04-02T09:03:40;5.50;99.90
52034;DHT22;38045;52.988;6.536;2023-04-02T09:06:09;5.70;99.90
52034;DHT22;38045;52.988;6.536;2023-04-02T09:08:38;5.80;99.90
52034;DHT22;38045;52.988;6.536;2023-04-02T09:13:45;5.70;99.90
52034;DHT22;38045;52.988;6.536;2023-04-02T09:16:17;5.60;99.90
52034;DHT22;38045;52.988;6.536;2023-04-02T09:18:46;5.50;99.90
52034;DHT22;38045;52.988;6.536;2023-04-02T09:21:42;5.40;99.90
52034;DHT22;38045;52.988;6.536;2023-04-02T09:24:10;5.30;99.90
52034;DHT22;38045;52.988;6.536;2023-04-02T09:26:37;5.40;99.90
52034;DHT22;38045;52.988;6.536;2023-04-02T09:31:44;5.70;99.90
52034;DHT22;38045;52.988;6.536;2023-04-02T09:34:33;5.80;99.90
52034;DHT22;38045;52.988;6.536;2023-04-02T09:37:20;6.00;99.90
52034;DHT22;38045;52.988;6.536;2023-04-02T09:39:49;6.10;99.90
52034;DHT22;38045;52.988;6.536;2023-04-02T09:42:34;6.20;99.90
52034;DHT22;38045;52.988;6.536;2023-04-02T09:45:21;6.20;99.90
52034;DHT22;38045;52.988;6.536;2023-04-02T09:47:48;6.30;99.90
52034;DHT22;38045;52.988;6.536;2023-04-02T09:52:46;6.40;99.90
52034;DHT22;38045;52.988;6.536;2023-04-02T09:55:28;6.40;99.90
52034;DHT22;38045;52.988;6.536;2023-04-02T09:58:13;6.50;99.90
52034;DHT22;38045;52.988;6.536;2023-04-02T10:00:48;6.60;99.90
52034;DHT22;38045;52.988;6.536;2023-04-02T10:03:20;6.60;99.90
52034;DHT22;38045;52.988;6.536;2023-04-02T10:05:47;6.70;99.90
52034;DHT22;38045;52.988;6.536;2023-04-02T10:08:25;7.00;99.90
52034;DHT22;38045;52.988;6.536;2023-04-02T10:10:55;7.20;99.90
52034;DHT22;38045;52.988;6.536;2023-04-02T10:18:59;7.70;99.90
52034;DHT22;38045;52.988;6.536;2023-04-02T10:21:37;7.70;99.90
52034;DHT22;38045;52.988;6.536;2023-04-02T10:24:15;7.80;99.90
52034;DHT22;38045;52.988;6.536;2023-04-02T10:29:40;8.00;99.90
52034;DHT22;38045;52.988;6.536;2023-04-02T10:35:00;8.10;99.90
52034;DHT22;38045;52.988;6.536;2023-04-02T10:37:44;8.40;99.90
52034;DHT22;38045;52.988;6.536;2023-04-02T10:48:42;9.10;99.90
52034;DHT22;38045;52.988;6.536;2023-04-02T10:51:35;9.20;99.90
52034;DHT22;38045;52.988;6.536;2023-04-02T10:57:03;9.20;99.90
52034;DHT22;38045;52.988;6.536;2023-04-02T10:59:33;9.30;99.90
52034;DHT22;38045;52.988;6.536;2023-04-02T11:02:02;9.60;99.90
52034;DHT22;38045;52.988;6.536;2023-04-02T11:04:33;9.60;99.90
52034;DHT22;38045;52.988;6.536;2023-04-02T11:07:05;9.50;99.90
52034;DHT22;38045;52.988;6.536;2023-04-02T11:09:36;9.40;99.90
52034;DHT22;38045;52.988;6.536;2023-04-02T11:12:04;9.40;99.90
52034;DHT22;38045;52.988;6.536;2023-04-02T11:14:31;9.50;99.90
52034;DHT22;38045;52.988;6.536;2023-04-02T11:16:59;9.50;99.90
52034;DHT22;38045;52.988;6.536;2023-04-02T11:19:32;9.60;99.90
52034;DHT22;38045;52.988;6.536;2023-04-02T11:22:19;9.70;99.90
52034;DHT22;38045;52.988;6.536;2023-04-02T11:24:48;10.00;99.90
52034;DHT22;38045;52.988;6.536;2023-04-02T11:27:21;10.00;99.90
52034;DHT22;38045;52.988;6.536;2023-04-02T11:30:04;9.90;99.90
52034;DHT22;38045;52.988;6.536;2023-04-02T11:34:57;10.10;99.90
52034;DHT22;38045;52.988;6.536;2023-04-02T11:37:37;10.30;99.90
52034;DHT22;38045;52.988;6.536;2023-04-02T11:42:49;10.80;99.90
52034;DHT22;38045;52.988;6.536;2023-04-02T11:50:39;10.90;99.90
52034;DHT22;38045;52.988;6.536;2023-04-02T12:01:15;11.00;99.90
52034;DHT22;38045;52.988;6.536;2023-04-02T12:11:40;10.60;99.90
52034;DHT22;38045;52.988;6.536;2023-04-02T12:14:40;10.60;99.90
52034;DHT22;38045;52.988;6.536;2023-04-02T12:17:30;10.80;99.90
52034;DHT22;38045;52.988;6.536;2023-04-02T12:20:23;10.80;99.90
52034;DHT22;38045;52.988;6.536;2023-04-02T12:22:50;11.20;99.90
52034;DHT22;38045;52.988;6.536;2023-04-02T12:25:26;11.20;99.90
52034;DHT22;38045;52.988;6.536;2023-04-02T12:30:36;11.60;99.90
52034;DHT22;38045;52.988;6.536;2023-04-02T12:35:48;12.00;99.90
52034;DHT22;38045;52.988;6.536;2023-04-02T12:38:22;12.00;99.90
52034;DHT22;38045;52.988;6.536;2023-04-02T12:41:00;12.00;99.90
52034;DHT22;38045;52.988;6.536;2023-04-02T12:43:28;12.10;99.90
52034;DHT22;38045;52.988;6.536;2023-04-02T12:45:57;12.10;99.90
52034;DHT22;38045;52.988;6.536;2023-04-02T12:48:24;12.10;99.90
52034;DHT22;38045;52.988;6.536;2023-04-02T12:50:50;12.10;99.90
52034;DHT22;38045;52.988;6.536;2023-04-02T12:53:25;12.20;99.90
52034;DHT22;38045;52.988;6.536;2023-04-02T12:55:54;12.20;99.90
52034;DHT22;38045;52.988;6.536;2023-04-02T12:58:27;12.30;99.90
52034;DHT22;38045;52.988;6.536;2023-04-02T13:01:09;12.40;99.90
52034;DHT22;38045;52.988;6.536;2023-04-02T13:03:35;12.30;99.90
52034;DHT22;38045;52.988;6.536;2023-04-02T13:06:01;12.00;99.90
52034;DHT22;38045;52.988;6.536;2023-04-02T13:08:45;12.00;99.90
52034;DHT22;38045;52.988;6.536;2023-04-02T13:11:10;11.90;99.90
52034;DHT22;38045;52.988;6.536;2023-04-02T13:13:38;11.70;99.90
52034;DHT22;38045;52.988;6.536;2023-04-02T13:18:34;11.30;99.90
52034;DHT22;38045;52.988;6.536;2023-04-02T13:21:05;11.40;99.90
52034;DHT22;38045;52.988;6.536;2023-04-02T13:23:35;11.90;99.90
52034;DHT22;38045;52.988;6.536;2023-04-02T13:26:17;12.10;99.90
52034;DHT22;38045;52.988;6.536;2023-04-02T13:28:55;12.30;99.90
52034;DHT22;38045;52.988;6.536;2023-04-02T13:31:21;12.30;99.90
52034;DHT22;38045;52.988;6.536;2023-04-02T13:33:46;12.40;99.90
52034;DHT22;38045;52.988;6.536;2023-04-02T13:36:13;12.40;99.60
52034;DHT22;38045;52.988;6.536;2023-04-02T13:38:39;12.60;99.90
52034;DHT22;38045;52.988;6.536;2023-04-02T13:41:09;12.40;99.90
52034;DHT22;38045;52.988;6.536;2023-04-02T13:43:36;12.50;98.90
52034;DHT22;38045;52.988;6.536;2023-04-02T13:46:04;12.70;99.90
52034;DHT22;38045;52.988;6.536;2023-04-02T13:48:30;12.90;99.90
52034;DHT22;38045;52.988;6.536;2023-04-02T13:50:56;12.70;98.60
52034;DHT22;38045;52.988;6.536;2023-04-02T13:53:29;12.80;99.60
52034;DHT22;38045;52.988;6.536;2023-04-02T13:55:56;12.90;99.80
52034;DHT22;38045;52.988;6.536;2023-04-02T13:58:21;13.10;99.90
52034;DHT22;38045;52.988;6.536;2023-04-02T14:00:47;13.30;99.90
52034;DHT22;38045;52.988;6.536;2023-04-02T14:03:19;13.50;99.60
52034;DHT22;38045;52.988;6.536;2023-04-02T14:06:09;13.40;98.70
52034;DHT22;38045;52.988;6.536;2023-04-02T14:08:50;13.20;98.30
52034;DHT22;38045;52.988;6.536;2023-04-02T14:11:25;13.10;99.40
52034;DHT22;38045;52.988;6.536;2023-04-02T14:14:00;12.70;98.90
52034;DHT22;38045;52.988;6.536;2023-04-02T14:19:42;12.60;98.90
52034;DHT22;38045;52.988;6.536;2023-04-02T14:25:02;12.80;98.10
52034;DHT22;38045;52.988;6.536;2023-04-02T14:30:57;13.20;98.30
52034;DHT22;38045;52.988;6.536;2023-04-02T14:36:29;13.10;97.70
52034;DHT22;38045;52.988;6.536;2023-04-02T14:44:25;12.70;97.20
52034;DHT22;38045;52.988;6.536;2023-04-02T14:46:59;12.30;98.70
52034;DHT22;38045;52.988;6.536;2023-04-02T14:49:34;12.20;98.70
52034;DHT22;38045;52.988;6.536;2023-04-02T14:52:07;12.20;98.80
52034;DHT22;38045;52.988;6.536;2023-04-02T14:54:38;12.10;98.60
52034;DHT22;38045;52.988;6.536;2023-04-02T14:57:26;11.90;98.50
52034;DHT22;38045;52.988;6.536;2023-04-02T14:59:59;11.80;99.20
52034;DHT22;38045;52.988;6.536;2023-04-02T15:11:09;11.40;98.90
52034;DHT22;38045;52.988;6.536;2023-04-02T15:13:49;11.50;98.00
52034;DHT22;38045;52.988;6.536;2023-04-02T15:16:18;11.50;98.60
52034;DHT22;38045;52.988;6.536;2023-04-02T15:18:47;11.40;98.80
52034;DHT22;38045;52.988;6.536;2023-04-02T15:24:04;11.90;98.60
52034;DHT22;38045;52.988;6.536;2023-04-02T15:26:55;12.70;97.90
52034;DHT22;38045;52.988;6.536;2023-04-02T15:30:12;13.00;96.70
52034;DHT22;38045;52.988;6.536;2023-04-02T15:35:22;13.20;95.90
52034;DHT22;38045;52.988;6.536;2023-04-02T15:43:29;13.80;96.20
52034;DHT22;38045;52.988;6.536;2023-04-02T15:51:58;13.90;96.10
52034;DHT22;38045;52.988;6.536;2023-04-02T16:05:20;14.00;96.40
52034;DHT22;38045;52.988;6.536;2023-04-02T16:10:51;13.50;95.10
52034;DHT22;38045;52.988;6.536;2023-04-02T16:21:22;14.00;95.90
52034;DHT22;38045;52.988;6.536;2023-04-02T16:23:48;14.20;95.70
52034;DHT22;38045;52.988;6.536;2023-04-02T16:45:52;12.80;96.20
52034;DHT22;38045;52.988;6.536;2023-04-02T16:48:24;13.20;94.90
52034;DHT22;38045;52.988;6.536;2023-04-02T16:53:54;13.10;94.80
52034;DHT22;38045;52.988;6.536;2023-04-02T17:05:14;12.50;92.60
52034;DHT22;38045;52.988;6.536;2023-04-02T17:10:32;12.90;93.40
52034;DHT22;38045;52.988;6.536;2023-04-02T17:15:37;12.90;93.80
52034;DHT22;38045;52.988;6.536;2023-04-02T17:18:17;13.40;92.90
52034;DHT22;38045;52.988;6.536;2023-04-02T17:20:45;13.70;93.60
52034;DHT22;38045;52.988;6.536;2023-04-02T17:23:12;14.10;92.40
52034;DHT22;38045;52.988;6.536;2023-04-02T17:25:48;14.20;92.30
52034;DHT22;38045;52.988;6.536;2023-04-02T17:28:19;14.00;91.90
52034;DHT22;38045;52.988;6.536;2023-04-02T17:30:55;13.20;91.70
52034;DHT22;38045;52.988;6.536;2023-04-02T17:33:22;12.50;92.00
52034;DHT22;38045;52.988;6.536;2023-04-02T17:41:33;11.00;92.20
52034;DHT22;38045;52.988;6.536;2023-04-02T17:44:42;10.60;92.60
52034;DHT22;38045;52.988;6.536;2023-04-02T17:47:11;10.20;93.00
52034;DHT22;38045;52.988;6.536;2023-04-02T17:52:49;9.90;93.80
52034;DHT22;38045;52.988;6.536;2023-04-02T17:55:46;9.70;94.10
52034;DHT22;38045;52.988;6.536;2023-04-02T18:09:47;8.70;94.60
52034;DHT22;38045;52.988;6.536;2023-04-02T18:12:30;8.60;94.60
52034;DHT22;38045;52.988;6.536;2023-04-02T18:15:28;8.50;94.70
52034;DHT22;38045;52.988;6.536;2023-04-02T18:26:32;8.00;95.70
52034;DHT22;38045;52.988;6.536;2023-04-02T18:34:32;7.80;95.20
52034;DHT22;38045;52.988;6.536;2023-04-02T18:48:00;7.50;95.50
52034;DHT22;38045;52.988;6.536;2023-04-02T18:50:36;7.40;95.60
52034;DHT22;38045;52.988;6.536;2023-04-02T18:53:17;7.30;95.80
52034;DHT22;38045;52.988;6.536;2023-04-02T18:56:05;7.30;96.00
52034;DHT22;38045;52.988;6.536;2023-04-02T19:01:05;7.20;95.80
52034;DHT22;38045;52.988;6.536;2023-04-02T19:03:59;7.20;96.70
52034;DHT22;38045;52.988;6.536;2023-04-02T19:06:34;7.10;96.40
52034;DHT22;38045;52.988;6.536;2023-04-02T19:09:11;7.10;96.40
52034;DHT22;38045;52.988;6.536;2023-04-02T19:11:39;7.00;96.40
52034;DHT22;38045;52.988;6.536;2023-04-02T19:14:12;7.00;96.70
52034;DHT22;38045;52.988;6.536;2023-04-02T19:16:58;6.90;96.90
52034;DHT22;38045;52.988;6.536;2023-04-02T19:34:06;6.60;97.10
52034;DHT22;38045;52.988;6.536;2023-04-02T19:37:13;6.60;96.60
52034;DHT22;38045;52.988;6.536;2023-04-02T19:40:06;6.50;97.40
52034;DHT22;38045;52.988;6.536;2023-04-02T19:42:48;6.50;97.10
52034;DHT22;38045;52.988;6.536;2023-04-02T19:47:53;6.40;97.40
52034;DHT22;38045;52.988;6.536;2023-04-02T19:50:19;6.40;97.30
52034;DHT22;38045;52.988;6.536;2023-04-02T19:52:45;6.30;97.40
52034;DHT22;38045;52.988;6.536;2023-04-02T19:55:11;6.30;97.50
52034;DHT22;38045;52.988;6.536;2023-04-02T19:57:36;6.30;97.60
52034;DHT22;38045;52.988;6.536;2023-04-02T20:00:03;6.30;97.50
52034;DHT22;38045;52.988;6.536;2023-04-02T20:02:29;6.20;97.90
52034;DHT22;38045;52.988;6.536;2023-04-02T20:04:54;5.30;97.70
52034;DHT22;38045;52.988;6.536;2023-04-02T20:07:21;6.20;97.90
52034;DHT22;38045;52.988;6.536;2023-04-02T20:09:46;6.10;98.20
52034;DHT22;38045;52.988;6.536;2023-04-02T20:12:12;6.10;97.90
52034;DHT22;38045;52.988;6.536;2023-04-02T20:14:37;6.10;98.30
52034;DHT22;38045;52.988;6.536;2023-04-02T20:17:03;6.10;98.60
52034;DHT22;38045;52.988;6.536;2023-04-02T20:19:28;6.00;98.20
52034;DHT22;38045;52.988;6.536;2023-04-02T20:21:54;6.00;98.40
52034;DHT22;38045;52.988;6.536;2023-04-02T20:24:20;6.00;98.40
52034;DHT22;38045;52.988;6.536;2023-04-02T20:26:46;6.00;98.90
52034;DHT22;38045;52.988;6.536;2023-04-02T20:29:11;5.90;98.60
52034;DHT22;38045;52.988;6.536;2023-04-02T20:31:37;5.90;98.40
52034;DHT22;38045;52.988;6.536;2023-04-02T20:34:03;5.80;98.90
52034;DHT22;38045;52.988;6.536;2023-04-02T20:36:33;5.80;99.00
52034;DHT22;38045;52.988;6.536;2023-04-02T20:38:59;5.80;99.40
52034;DHT22;38045;52.988;6.536;2023-04-02T20:41:24;5.70;99.60
52034;DHT22;38045;52.988;6.536;2023-04-02T20:43:50;5.70;99.50
52034;DHT22;38045;52.988;6.536;2023-04-02T20:46:17;5.70;99.50
52034;DHT22;38045;52.988;6.536;2023-04-02T20:48:43;5.60;99.90
52034;DHT22;38045;52.988;6.536;2023-04-02T20:51:12;5.60;99.90
52034;DHT22;38045;52.988;6.536;2023-04-02T20:53:38;5.60;99.90
52034;DHT22;38045;52.988;6.536;2023-04-02T20:56:06;5.50;99.90
52034;DHT22;38045;52.988;6.536;2023-04-02T20:58:34;5.50;99.90
52034;DHT22;38045;52.988;6.536;2023-04-02T21:01:20;5.50;99.90
52034;DHT22;38045;52.988;6.536;2023-04-02T21:03:47;5.50;99.90
52034;DHT22;38045;52.988;6.536;2023-04-02T21:06:18;5.40;99.90
52034;DHT22;38045;52.988;6.536;2023-04-02T21:08:44;5.40;99.90
52034;DHT22;38045;52.988;6.536;2023-04-02T21:11:10;6.10;99.90
52034;DHT22;38045;52.988;6.536;2023-04-02T21:13:36;5.30;99.90
52034;DHT22;38045;52.988;6.536;2023-04-02T21:16:03;5.30;99.90
52034;DHT22;38045;52.988;6.536;2023-04-02T21:18:31;5.30;99.90
52034;DHT22;38045;52.988;6.536;2023-04-02T21:21:01;5.30;99.90
52034;DHT22;38045;52.988;6.536;2023-04-02T21:23:28;5.20;99.90
52034;DHT22;38045;52.988;6.536;2023-04-02T21:25:58;5.20;99.90
52034;DHT22;38045;52.988;6.536;2023-04-02T21:28:24;5.10;99.90